< < Back
Terminal Aerodrome Forecast


Current Version              Previous Versions:   1  2  3  4  5  6  7  8  9  

Terminal Aerodrome Forecast

194
FTUS44 KMOB 301100
TAFPNS
TAF
KPNS 301131Z 3012/3112 35014G23KT P6SM SCT250
     FM302100 36011KT P6SM SKC
     FM310300 01005KT P6SM SKC=



Latest METAR

389
SAUS70 KWBC 301400
MTRPNS
METAR KPNS 301353Z 35012G23KT 10SM CLR 08/02 A3033 RMK AO2 SLP272
T00780017 $


USA.gov is the U.S. government's official web portal to all federal, state and local government web resources and services.